sensor_id;sensor_type;location;lat;lon;timestamp;temperature;humidity
27384;DHT22;14851;51.166;4.760;2023-08-24T00:02:14;18.80;99.90
27384;DHT22;14851;51.166;4.760;2023-08-24T00:04:40;18.80;99.90
27384;DHT22;14851;51.166;4.760;2023-08-24T00:07:06;18.90;99.90
27384;DHT22;14851;51.166;4.760;2023-08-24T00:09:34;18.90;99.90
27384;DHT22;14851;51.166;4.760;2023-08-24T00:12:02;18.80;99.90
27384;DHT22;14851;51.166;4.760;2023-08-24T00:14:28;18.80;99.90
27384;DHT22;14851;51.166;4.760;2023-08-24T00:16:54;18.80;99.90
27384;DHT22;14851;51.166;4.760;2023-08-24T00:19:20;18.80;99.90
27384;DHT22;14851;51.166;4.760;2023-08-24T00:21:46;18.80;99.90
27384;DHT22;14851;51.166;4.760;2023-08-24T00:24:12;18.80;99.90
27384;DHT22;14851;51.166;4.760;2023-08-24T00:26:43;18.80;99.90
27384;DHT22;14851;51.166;4.760;2023-08-24T00:29:10;18.80;99.90
27384;DHT22;14851;51.166;4.760;2023-08-24T00:31:37;18.80;99.90
27384;DHT22;14851;51.166;4.760;2023-08-24T00:34:06;18.70;99.90
27384;DHT22;14851;51.166;4.760;2023-08-24T00:36:34;18.70;99.90
27384;DHT22;14851;51.166;4.760;2023-08-24T00:39:02;18.70;99.90
27384;DHT22;14851;51.166;4.760;2023-08-24T00:41:29;18.80;99.90
27384;DHT22;14851;51.166;4.760;2023-08-24T00:43:57;18.80;99.90
27384;DHT22;14851;51.166;4.760;2023-08-24T00:46:25;18.80;99.90
27384;DHT22;14851;51.166;4.760;2023-08-24T00:48:57;18.80;99.90
27384;DHT22;14851;51.166;4.760;2023-08-24T00:51:24;18.80;99.90
27384;DHT22;14851;51.166;4.760;2023-08-24T00:53:53;18.80;99.90
27384;DHT22;14851;51.166;4.760;2023-08-24T00:56:22;18.90;99.90
27384;DHT22;14851;51.166;4.760;2023-08-24T00:58:51;18.80;99.90
27384;DHT22;14851;51.166;4.760;2023-08-24T01:01:20;18.90;99.90
27384;DHT22;14851;51.166;4.760;2023-08-24T01:03:46;18.90;99.90
27384;DHT22;14851;51.166;4.760;2023-08-24T01:06:15;18.90;99.90
27384;DHT22;14851;51.166;4.760;2023-08-24T01:08:42;18.90;99.90
27384;DHT22;14851;51.166;4.760;2023-08-24T01:16:28;18.90;99.90
27384;DHT22;14851;51.166;4.760;2023-08-24T01:19:01;18.90;99.90
27384;DHT22;14851;51.166;4.760;2023-08-24T01:21:28;18.90;99.90
27384;DHT22;14851;51.166;4.760;2023-08-24T01:24:04;18.80;99.90
27384;DHT22;14851;51.166;4.760;2023-08-24T01:26:36;18.90;99.90
27384;DHT22;14851;51.166;4.760;2023-08-24T01:29:04;18.90;99.90
27384;DHT22;14851;51.166;4.760;2023-08-24T01:31:31;18.90;99.90
27384;DHT22;14851;51.166;4.760;2023-08-24T01:33:59;18.90;99.90
27384;DHT22;14851;51.166;4.760;2023-08-24T01:36:27;18.90;99.90
27384;DHT22;14851;51.166;4.760;2023-08-24T01:38:59;18.90;99.90
27384;DHT22;14851;51.166;4.760;2023-08-24T01:41:36;18.90;99.90
27384;DHT22;14851;51.166;4.760;2023-08-24T01:44:11;19.00;99.90
27384;DHT22;14851;51.166;4.760;2023-08-24T01:46:42;19.00;99.90
27384;DHT22;14851;51.166;4.760;2023-08-24T01:49:12;18.90;99.90
27384;DHT22;14851;51.166;4.760;2023-08-24T01:51:39;19.00;99.90
27384;DHT22;14851;51.166;4.760;2023-08-24T01:54:07;18.90;99.90
27384;DHT22;14851;51.166;4.760;2023-08-24T01:56:33;18.90;99.90
27384;DHT22;14851;51.166;4.760;2023-08-24T01:59:00;19.00;99.90
27384;DHT22;14851;51.166;4.760;2023-08-24T02:01:27;19.00;99.90
27384;DHT22;14851;51.166;4.760;2023-08-24T02:03:55;19.00;99.90
27384;DHT22;14851;51.166;4.760;2023-08-24T02:06:23;19.00;99.90
27384;DHT22;14851;51.166;4.760;2023-08-24T02:08:54;19.00;99.90
27384;DHT22;14851;51.166;4.760;2023-08-24T02:11:21;19.00;99.90
27384;DHT22;14851;51.166;4.760;2023-08-24T02:13:49;19.00;99.90
27384;DHT22;14851;51.166;4.760;2023-08-24T02:16:15;19.00;99.90
27384;DHT22;14851;51.166;4.760;2023-08-24T02:18:41;19.00;99.90
27384;DHT22;14851;51.166;4.760;2023-08-24T02:21:09;19.00;99.90
27384;DHT22;14851;51.166;4.760;2023-08-24T02:23:40;19.10;99.90
27384;DHT22;14851;51.166;4.760;2023-08-24T02:26:06;19.00;99.90
27384;DHT22;14851;51.166;4.760;2023-08-24T02:28:36;19.10;99.90
27384;DHT22;14851;51.166;4.760;2023-08-24T02:31:02;19.10;99.90
27384;DHT22;14851;51.166;4.760;2023-08-24T02:33:31;19.00;99.90
27384;DHT22;14851;51.166;4.760;2023-08-24T02:35:57;19.00;99.90
27384;DHT22;14851;51.166;4.760;2023-08-24T02:38:23;19.00;99.90
27384;DHT22;14851;51.166;4.760;2023-08-24T02:41:03;19.00;99.90
27384;DHT22;14851;51.166;4.760;2023-08-24T02:43:30;18.90;99.90
27384;DHT22;14851;51.166;4.760;2023-08-24T02:46:00;19.00;99.90
27384;DHT22;14851;51.166;4.760;2023-08-24T02:48:27;19.00;99.90
27384;DHT22;14851;51.166;4.760;2023-08-24T02:50:57;18.90;99.90
27384;DHT22;14851;51.166;4.760;2023-08-24T02:53:24;18.90;99.90
27384;DHT22;14851;51.166;4.760;2023-08-24T02:55:51;18.90;99.90
27384;DHT22;14851;51.166;4.760;2023-08-24T02:58:19;18.90;99.90
27384;DHT22;14851;51.166;4.760;2023-08-24T03:00:45;18.90;99.90
27384;DHT22;14851;51.166;4.760;2023-08-24T03:03:14;18.90;99.90
27384;DHT22;14851;51.166;4.760;2023-08-24T03:05:41;18.90;99.90
27384;DHT22;14851;51.166;4.760;2023-08-24T03:08:16;18.90;99.90
27384;DHT22;14851;51.166;4.760;2023-08-24T03:10:45;18.80;99.90
27384;DHT22;14851;51.166;4.760;2023-08-24T03:13:11;18.80;99.90
27384;DHT22;14851;51.166;4.760;2023-08-24T03:15:40;18.80;99.90
27384;DHT22;14851;51.166;4.760;2023-08-24T03:18:06;18.80;99.90
27384;DHT22;14851;51.166;4.760;2023-08-24T03:20:35;18.80;99.90
27384;DHT22;14851;51.166;4.760;2023-08-24T03:23:00;18.80;99.90
27384;DHT22;14851;51.166;4.760;2023-08-24T03:25:26;18.80;99.90
27384;DHT22;14851;51.166;4.760;2023-08-24T03:27:54;18.80;99.90
27384;DHT22;14851;51.166;4.760;2023-08-24T03:30:24;18.70;99.90
27384;DHT22;14851;51.166;4.760;2023-08-24T03:32:49;18.70;99.90
27384;DHT22;14851;51.166;4.760;2023-08-24T03:35:15;18.60;99.90
27384;DHT22;14851;51.166;4.760;2023-08-24T03:37:42;18.70;99.90
27384;DHT22;14851;51.166;4.760;2023-08-24T03:40:08;18.60;99.90
27384;DHT22;14851;51.166;4.760;2023-08-24T03:42:36;18.60;99.90
27384;DHT22;14851;51.166;4.760;2023-08-24T03:45:03;18.60;99.90
27384;DHT22;14851;51.166;4.760;2023-08-24T03:47:31;18.60;99.90
27384;DHT22;14851;51.166;4.760;2023-08-24T03:49:57;18.60;99.90
27384;DHT22;14851;51.166;4.760;2023-08-24T03:52:23;18.60;99.90
27384;DHT22;14851;51.166;4.760;2023-08-24T03:54:51;18.60;99.90
27384;DHT22;14851;51.166;4.760;2023-08-24T03:57:17;18.60;99.90
27384;DHT22;14851;51.166;4.760;2023-08-24T03:59:43;18.60;99.90
27384;DHT22;14851;51.166;4.760;2023-08-24T04:02:10;18.60;99.90
27384;DHT22;14851;51.166;4.760;2023-08-24T04:04:40;18.60;99.90
27384;DHT22;14851;51.166;4.760;2023-08-24T04:07:08;18.50;99.90
27384;DHT22;14851;51.166;4.760;2023-08-24T04:09:34;18.40;99.90
27384;DHT22;14851;51.166;4.760;2023-08-24T04:11:59;18.40;99.90
27384;DHT22;14851;51.166;4.760;2023-08-24T04:14:28;18.40;99.90
27384;DHT22;14851;51.166;4.760;2023-08-24T04:16:55;18.40;99.90
27384;DHT22;14851;51.166;4.760;2023-08-24T04:19:22;18.30;99.90
27384;DHT22;14851;51.166;4.760;2023-08-24T04:21:47;18.30;99.90
27384;DHT22;14851;51.166;4.760;2023-08-24T04:24:15;18.20;99.90
27384;DHT22;14851;51.166;4.760;2023-08-24T04:26:41;18.20;99.90
27384;DHT22;14851;51.166;4.760;2023-08-24T04:29:07;18.20;99.90
27384;DHT22;14851;51.166;4.760;2023-08-24T04:31:35;18.20;99.90
27384;DHT22;14851;51.166;4.760;2023-08-24T04:34:03;18.20;99.90
27384;DHT22;14851;51.166;4.760;2023-08-24T04:36:30;18.20;99.90
27384;DHT22;14851;51.166;4.760;2023-08-24T04:38:56;18.10;99.90
27384;DHT22;14851;51.166;4.760;2023-08-24T04:41:25;18.10;99.90
27384;DHT22;14851;51.166;4.760;2023-08-24T04:43:55;18.00;99.90
27384;DHT22;14851;51.166;4.760;2023-08-24T04:46:21;18.00;99.90
27384;DHT22;14851;51.166;4.760;2023-08-24T04:48:48;18.00;99.90
27384;DHT22;14851;51.166;4.760;2023-08-24T04:51:13;17.90;99.90
27384;DHT22;14851;51.166;4.760;2023-08-24T04:53:44;17.90;99.90
27384;DHT22;14851;51.166;4.760;2023-08-24T04:56:13;17.90;99.90
27384;DHT22;14851;51.166;4.760;2023-08-24T04:58:58;17.90;99.90
27384;DHT22;14851;51.166;4.760;2023-08-24T05:01:29;17.90;99.90
27384;DHT22;14851;51.166;4.760;2023-08-24T05:03:58;17.90;99.90
27384;DHT22;14851;51.166;4.760;2023-08-24T05:06:24;17.90;99.90
27384;DHT22;14851;51.166;4.760;2023-08-24T05:08:49;17.90;99.90
27384;DHT22;14851;51.166;4.760;2023-08-24T05:11:22;17.90;99.90
27384;DHT22;14851;51.166;4.760;2023-08-24T05:13:49;17.80;99.90
27384;DHT22;14851;51.166;4.760;2023-08-24T05:16:15;17.80;99.90
27384;DHT22;14851;51.166;4.760;2023-08-24T05:18:41;17.80;99.90
27384;DHT22;14851;51.166;4.760;2023-08-24T05:21:07;17.80;99.90
27384;DHT22;14851;51.166;4.760;2023-08-24T05:23:35;17.80;99.90
27384;DHT22;14851;51.166;4.760;2023-08-24T05:26:05;17.80;99.90
27384;DHT22;14851;51.166;4.760;2023-08-24T05:28:33;17.80;99.90
27384;DHT22;14851;51.166;4.760;2023-08-24T05:31:05;17.80;99.90
27384;DHT22;14851;51.166;4.760;2023-08-24T05:33:31;17.80;99.90
27384;DHT22;14851;51.166;4.760;2023-08-24T05:36:01;17.80;99.90
27384;DHT22;14851;51.166;4.760;2023-08-24T05:38:27;17.80;99.90
27384;DHT22;14851;51.166;4.760;2023-08-24T05:40:52;17.80;99.90
27384;DHT22;14851;51.166;4.760;2023-08-24T05:43:21;17.80;99.90
27384;DHT22;14851;51.166;4.760;2023-08-24T05:45:48;17.80;99.90
27384;DHT22;14851;51.166;4.760;2023-08-24T05:48:17;17.80;99.90
27384;DHT22;14851;51.166;4.760;2023-08-24T05:50:45;17.80;99.90
27384;DHT22;14851;51.166;4.760;2023-08-24T05:53:11;17.80;99.90
27384;DHT22;14851;51.166;4.760;2023-08-24T05:55:40;17.90;99.90
27384;DHT22;14851;51.166;4.760;2023-08-24T05:58:05;17.90;99.90
27384;DHT22;14851;51.166;4.760;2023-08-24T06:00:34;17.90;99.90
27384;DHT22;14851;51.166;4.760;2023-08-24T06:03:03;17.90;99.90
27384;DHT22;14851;51.166;4.760;2023-08-24T06:05:30;18.00;99.90
27384;DHT22;14851;51.166;4.760;2023-08-24T06:07:57;18.00;99.90
27384;DHT22;14851;51.166;4.760;2023-08-24T06:10:25;18.00;99.90
27384;DHT22;14851;51.166;4.760;2023-08-24T06:12:53;18.00;99.90
27384;DHT22;14851;51.166;4.760;2023-08-24T06:15:19;18.00;99.90
27384;DHT22;14851;51.166;4.760;2023-08-24T06:17:45;18.10;99.90
27384;DHT22;14851;51.166;4.760;2023-08-24T06:20:14;18.10;99.90
27384;DHT22;14851;51.166;4.760;2023-08-24T06:22:42;18.10;99.90
27384;DHT22;14851;51.166;4.760;2023-08-24T06:25:08;18.20;99.90
27384;DHT22;14851;51.166;4.760;2023-08-24T06:27:35;18.20;99.90
27384;DHT22;14851;51.166;4.760;2023-08-24T06:30:02;18.20;99.90
27384;DHT22;14851;51.166;4.760;2023-08-24T06:32:29;18.20;99.90
27384;DHT22;14851;51.166;4.760;2023-08-24T06:34:54;18.30;99.90
27384;DHT22;14851;51.166;4.760;2023-08-24T06:37:21;18.30;99.90
27384;DHT22;14851;51.166;4.760;2023-08-24T06:39:46;18.30;99.90
27384;DHT22;14851;51.166;4.760;2023-08-24T06:42:12;18.40;99.90
27384;DHT22;14851;51.166;4.760;2023-08-24T06:44:40;18.40;99.90
27384;DHT22;14851;51.166;4.760;2023-08-24T06:47:05;18.50;99.90
27384;DHT22;14851;51.166;4.760;2023-08-24T06:49:31;18.50;99.90
27384;DHT22;14851;51.166;4.760;2023-08-24T06:51:58;18.50;99.90
27384;DHT22;14851;51.166;4.760;2023-08-24T06:54:27;18.60;99.90
27384;DHT22;14851;51.166;4.760;2023-08-24T06:56:52;18.60;99.90
27384;DHT22;14851;51.166;4.760;2023-08-24T06:59:19;18.60;99.90
27384;DHT22;14851;51.166;4.760;2023-08-24T07:01:45;18.70;99.90
27384;DHT22;14851;51.166;4.760;2023-08-24T07:04:12;18.70;99.90
27384;DHT22;14851;51.166;4.760;2023-08-24T07:06:38;18.80;99.90
27384;DHT22;14851;51.166;4.760;2023-08-24T07:09:05;18.80;99.90
27384;DHT22;14851;51.166;4.760;2023-08-24T07:11:33;18.80;99.90
27384;DHT22;14851;51.166;4.760;2023-08-24T07:13:58;18.90;99.90
27384;DHT22;14851;51.166;4.760;2023-08-24T07:16:26;19.00;99.90
27384;DHT22;14851;51.166;4.760;2023-08-24T07:18:52;19.00;99.90
27384;DHT22;14851;51.166;4.760;2023-08-24T07:21:18;19.10;99.90
27384;DHT22;14851;51.166;4.760;2023-08-24T07:23:44;19.20;99.90
27384;DHT22;14851;51.166;4.760;2023-08-24T07:26:10;19.20;99.90
27384;DHT22;14851;51.166;4.760;2023-08-24T07:28:36;19.20;99.90
27384;DHT22;14851;51.166;4.760;2023-08-24T07:31:09;19.30;99.90
27384;DHT22;14851;51.166;4.760;2023-08-24T07:33:41;19.30;99.90
27384;DHT22;14851;51.166;4.760;2023-08-24T07:36:11;19.40;99.90
27384;DHT22;14851;51.166;4.760;2023-08-24T07:38:37;19.50;99.90
27384;DHT22;14851;51.166;4.760;2023-08-24T07:41:03;19.50;99.90
27384;DHT22;14851;51.166;4.760;2023-08-24T07:43:28;19.60;99.90
27384;DHT22;14851;51.166;4.760;2023-08-24T07:45:55;19.60;99.90
27384;DHT22;14851;51.166;4.760;2023-08-24T07:48:22;19.60;99.90
27384;DHT22;14851;51.166;4.760;2023-08-24T07:50:47;19.70;99.90
27384;DHT22;14851;51.166;4.760;2023-08-24T07:53:13;19.70;99.90
27384;DHT22;14851;51.166;4.760;2023-08-24T07:55:39;19.80;99.90
27384;DHT22;14851;51.166;4.760;2023-08-24T07:58:06;19.80;99.90
27384;DHT22;14851;51.166;4.760;2023-08-24T08:00:32;19.80;99.90
27384;DHT22;14851;51.166;4.760;2023-08-24T08:03:00;19.90;99.90
27384;DHT22;14851;51.166;4.760;2023-08-24T08:05:31;19.90;99.90
27384;DHT22;14851;51.166;4.760;2023-08-24T08:07:57;20.00;99.90
27384;DHT22;14851;51.166;4.760;2023-08-24T08:10:26;20.00;99.90
27384;DHT22;14851;51.166;4.760;2023-08-24T08:12:52;20.10;99.90
27384;DHT22;14851;51.166;4.760;2023-08-24T08:15:18;20.10;99.90
27384;DHT22;14851;51.166;4.760;2023-08-24T08:17:44;20.20;99.90
27384;DHT22;14851;51.166;4.760;2023-08-24T08:20:13;20.20;99.90
27384;DHT22;14851;51.166;4.760;2023-08-24T08:22:39;20.20;99.90
27384;DHT22;14851;51.166;4.760;2023-08-24T08:25:06;20.30;99.90
27384;DHT22;14851;51.166;4.760;2023-08-24T08:27:32;20.30;99.90
27384;DHT22;14851;51.166;4.760;2023-08-24T08:30:00;20.40;99.90
27384;DHT22;14851;51.166;4.760;2023-08-24T08:32:25;20.40;99.90
27384;DHT22;14851;51.166;4.760;2023-08-24T08:34:55;20.50;99.90
27384;DHT22;14851;51.166;4.760;2023-08-24T08:37:24;20.50;99.90
27384;DHT22;14851;51.166;4.760;2023-08-24T08:39:50;20.50;99.90
27384;DHT22;14851;51.166;4.760;2023-08-24T08:42:17;20.60;99.90
27384;DHT22;14851;51.166;4.760;2023-08-24T08:44:46;20.70;99.90
27384;DHT22;14851;51.166;4.760;2023-08-24T08:47:15;20.70;99.90
27384;DHT22;14851;51.166;4.760;2023-08-24T08:49:43;20.70;99.90
27384;DHT22;14851;51.166;4.760;2023-08-24T08:52:12;20.80;99.90
27384;DHT22;14851;51.166;4.760;2023-08-24T08:54:38;20.70;99.90
27384;DHT22;14851;51.166;4.760;2023-08-24T08:57:04;20.80;99.90
27384;DHT22;14851;51.166;4.760;2023-08-24T08:59:30;20.80;99.90
27384;DHT22;14851;51.166;4.760;2023-08-24T09:01:57;20.90;99.90
27384;DHT22;14851;51.166;4.760;2023-08-24T09:04:31;20.90;99.90
27384;DHT22;14851;51.166;4.760;2023-08-24T09:06:57;21.00;99.90
27384;DHT22;14851;51.166;4.760;2023-08-24T09:09:25;21.00;99.90
27384;DHT22;14851;51.166;4.760;2023-08-24T09:11:54;21.00;99.90
27384;DHT22;14851;51.166;4.760;2023-08-24T09:14:23;21.10;99.90
27384;DHT22;14851;51.166;4.760;2023-08-24T09:16:49;21.10;99.90
27384;DHT22;14851;51.166;4.760;2023-08-24T09:19:15;21.20;99.90
27384;DHT22;14851;51.166;4.760;2023-08-24T09:21:43;21.20;99.90
27384;DHT22;14851;51.166;4.760;2023-08-24T09:24:10;21.30;99.90
27384;DHT22;14851;51.166;4.760;2023-08-24T09:26:39;21.30;99.90
27384;DHT22;14851;51.166;4.760;2023-08-24T09:29:13;21.30;99.90
27384;DHT22;14851;51.166;4.760;2023-08-24T09:31:42;21.40;99.90
27384;DHT22;14851;51.166;4.760;2023-08-24T09:34:12;21.40;99.90
27384;DHT22;14851;51.166;4.760;2023-08-24T09:36:38;21.40;99.90
27384;DHT22;14851;51.166;4.760;2023-08-24T09:39:07;21.50;99.90
27384;DHT22;14851;51.166;4.760;2023-08-24T09:41:43;21.50;99.90
27384;DHT22;14851;51.166;4.760;2023-08-24T09:44:11;21.60;99.90
27384;DHT22;14851;51.166;4.760;2023-08-24T09:46:38;21.50;99.90
27384;DHT22;14851;51.166;4.760;2023-08-24T09:49:08;21.60;99.90
27384;DHT22;14851;51.166;4.760;2023-08-24T09:51:35;21.60;99.90
27384;DHT22;14851;51.166;4.760;2023-08-24T09:54:05;21.60;99.90
27384;DHT22;14851;51.166;4.760;2023-08-24T09:56:40;21.60;99.90
27384;DHT22;14851;51.166;4.760;2023-08-24T09:59:16;21.60;99.90
27384;DHT22;14851;51.166;4.760;2023-08-24T10:01:48;21.60;99.90
27384;DHT22;14851;51.166;4.760;2023-08-24T10:04:24;21.50;99.90
27384;DHT22;14851;51.166;4.760;2023-08-24T10:06:55;21.60;99.90
27384;DHT22;14851;51.166;4.760;2023-08-24T10:09:38;21.50;99.90
27384;DHT22;14851;51.166;4.760;2023-08-24T10:12:07;21.60;99.90
27384;DHT22;14851;51.166;4.760;2023-08-24T10:14:44;21.60;99.90
27384;DHT22;14851;51.166;4.760;2023-08-24T10:17:15;21.50;99.90
27384;DHT22;14851;51.166;4.760;2023-08-24T10:19:42;21.50;99.90
27384;DHT22;14851;51.166;4.760;2023-08-24T10:22:09;21.50;99.90
27384;DHT22;14851;51.166;4.760;2023-08-24T10:24:37;21.50;99.90
27384;DHT22;14851;51.166;4.760;2023-08-24T10:27:08;21.50;99.90
27384;DHT22;14851;51.166;4.760;2023-08-24T10:29:37;21.40;99.90
27384;DHT22;14851;51.166;4.760;2023-08-24T10:32:04;21.40;99.90
27384;DHT22;14851;51.166;4.760;2023-08-24T10:34:37;21.40;99.90
27384;DHT22;14851;51.166;4.760;2023-08-24T10:37:10;21.40;99.90
27384;DHT22;14851;51.166;4.760;2023-08-24T10:39:37;21.40;99.90
27384;DHT22;14851;51.166;4.760;2023-08-24T10:42:10;21.40;99.90
27384;DHT22;14851;51.166;4.760;2023-08-24T10:44:38;21.40;99.90
27384;DHT22;14851;51.166;4.760;2023-08-24T10:49:44;21.40;99.90
27384;DHT22;14851;51.166;4.760;2023-08-24T10:52:18;21.50;99.90
27384;DHT22;14851;51.166;4.760;2023-08-24T10:54:48;21.50;99.90
27384;DHT22;14851;51.166;4.760;2023-08-24T10:57:38;21.50;99.90
27384;DHT22;14851;51.166;4.760;2023-08-24T11:00:11;21.50;99.90
27384;DHT22;14851;51.166;4.760;2023-08-24T11:02:51;21.40;99.90
27384;DHT22;14851;51.166;4.760;2023-08-24T11:10:20;21.40;99.90
27384;DHT22;14851;51.166;4.760;2023-08-24T11:15:49;21.60;99.90
27384;DHT22;14851;51.166;4.760;2023-08-24T11:20:53;21.60;99.90
27384;DHT22;14851;51.166;4.760;2023-08-24T11:23:23;21.70;99.90
27384;DHT22;14851;51.166;4.760;2023-08-24T11:25:51;21.70;99.90
27384;DHT22;14851;51.166;4.760;2023-08-24T11:28:30;21.80;99.90
27384;DHT22;14851;51.166;4.760;2023-08-24T11:30:57;21.90;99.90
27384;DHT22;14851;51.166;4.760;2023-08-24T11:35:53;22.00;99.90
27384;DHT22;14851;51.166;4.760;2023-08-24T11:38:20;22.00;99.90
27384;DHT22;14851;51.166;4.760;2023-08-24T11:40:46;22.00;99.90
27384;DHT22;14851;51.166;4.760;2023-08-24T11:43:25;22.00;99.90
27384;DHT22;14851;51.166;4.760;2023-08-24T11:45:55;22.10;99.90
27384;DHT22;14851;51.166;4.760;2023-08-24T11:48:24;22.20;99.90
27384;DHT22;14851;51.166;4.760;2023-08-24T11:50:51;22.20;99.90
27384;DHT22;14851;51.166;4.760;2023-08-24T11:53:19;22.20;99.90
27384;DHT22;14851;51.166;4.760;2023-08-24T11:55:45;22.30;99.90
27384;DHT22;14851;51.166;4.760;2023-08-24T11:58:15;22.30;99.90
27384;DHT22;14851;51.166;4.760;2023-08-24T12:00:42;22.30;99.90
27384;DHT22;14851;51.166;4.760;2023-08-24T12:03:08;22.30;99.90
27384;DHT22;14851;51.166;4.760;2023-08-24T12:05:35;22.30;99.90
27384;DHT22;14851;51.166;4.760;2023-08-24T12:08:01;22.30;99.90
27384;DHT22;14851;51.166;4.760;2023-08-24T12:10:27;22.30;99.90
27384;DHT22;14851;51.166;4.760;2023-08-24T12:13:06;22.40;99.90
27384;DHT22;14851;51.166;4.760;2023-08-24T12:15:38;22.40;99.90
27384;DHT22;14851;51.166;4.760;2023-08-24T12:18:13;22.50;99.90
27384;DHT22;14851;51.166;4.760;2023-08-24T12:20:42;22.50;99.90
27384;DHT22;14851;51.166;4.760;2023-08-24T12:23:10;22.50;99.90
27384;DHT22;14851;51.166;4.760;2023-08-24T12:25:42;22.50;99.90
27384;DHT22;14851;51.166;4.760;2023-08-24T12:28:13;22.60;99.90
27384;DHT22;14851;51.166;4.760;2023-08-24T12:30:50;22.60;99.90
27384;DHT22;14851;51.166;4.760;2023-08-24T12:33:25;22.60;99.90
27384;DHT22;14851;51.166;4.760;2023-08-24T12:35:55;22.70;99.90
27384;DHT22;14851;51.166;4.760;2023-08-24T12:38:24;22.60;99.90
27384;DHT22;14851;51.166;4.760;2023-08-24T12:40:51;22.70;99.90
27384;DHT22;14851;51.166;4.760;2023-08-24T12:43:17;22.70;99.90
27384;DHT22;14851;51.166;4.760;2023-08-24T12:45:43;22.70;99.90
27384;DHT22;14851;51.166;4.760;2023-08-24T12:48:09;22.70;99.90
27384;DHT22;14851;51.166;4.760;2023-08-24T12:50:38;22.60;99.90
27384;DHT22;14851;51.166;4.760;2023-08-24T12:53:04;22.70;99.90
27384;DHT22;14851;51.166;4.760;2023-08-24T12:55:32;22.70;99.90
27384;DHT22;14851;51.166;4.760;2023-08-24T12:57:59;22.70;99.90
27384;DHT22;14851;51.166;4.760;2023-08-24T13:00:25;22.70;99.90
27384;DHT22;14851;51.166;4.760;2023-08-24T13:02:57;22.60;99.90
27384;DHT22;14851;51.166;4.760;2023-08-24T13:05:24;22.70;99.90
27384;DHT22;14851;51.166;4.760;2023-08-24T13:07:50;22.70;99.90
27384;DHT22;14851;51.166;4.760;2023-08-24T13:10:17;22.70;99.90
27384;DHT22;14851;51.166;4.760;2023-08-24T13:12:42;22.70;99.90
27384;DHT22;14851;51.166;4.760;2023-08-24T13:15:11;22.60;99.90
27384;DHT22;14851;51.166;4.760;2023-08-24T13:17:38;22.60;99.90
27384;DHT22;14851;51.166;4.760;2023-08-24T13:20:08;22.60;99.90
27384;DHT22;14851;51.166;4.760;2023-08-24T13:22:36;22.50;99.90
27384;DHT22;14851;51.166;4.760;2023-08-24T13:25:02;22.50;99.90
27384;DHT22;14851;51.166;4.760;2023-08-24T13:27:31;22.50;99.90
27384;DHT22;14851;51.166;4.760;2023-08-24T13:30:00;22.50;99.90
27384;DHT22;14851;51.166;4.760;2023-08-24T13:32:25;22.50;99.90
27384;DHT22;14851;51.166;4.760;2023-08-24T13:34:54;22.50;99.90
27384;DHT22;14851;51.166;4.760;2023-08-24T13:37:22;22.50;99.90
27384;DHT22;14851;51.166;4.760;2023-08-24T13:39:48;22.50;99.90
27384;DHT22;14851;51.166;4.760;2023-08-24T13:42:14;22.40;99.90
27384;DHT22;14851;51.166;4.760;2023-08-24T13:44:40;22.40;99.90
27384;DHT22;14851;51.166;4.760;2023-08-24T13:47:06;22.40;99.90
27384;DHT22;14851;51.166;4.760;2023-08-24T13:49:32;22.40;99.90
27384;DHT22;14851;51.166;4.760;2023-08-24T13:52:00;22.40;99.90
27384;DHT22;14851;51.166;4.760;2023-08-24T13:54:29;22.40;99.90
27384;DHT22;14851;51.166;4.760;2023-08-24T13:56:58;22.40;99.90
27384;DHT22;14851;51.166;4.760;2023-08-24T13:59:28;22.40;99.90
27384;DHT22;14851;51.166;4.760;2023-08-24T14:01:54;22.40;99.90
27384;DHT22;14851;51.166;4.760;2023-08-24T14:04:20;22.40;99.90
27384;DHT22;14851;51.166;4.760;2023-08-24T14:06:48;22.40;99.90
27384;DHT22;14851;51.166;4.760;2023-08-24T14:09:14;22.40;99.90
27384;DHT22;14851;51.166;4.760;2023-08-24T14:11:40;22.50;99.90
27384;DHT22;14851;51.166;4.760;2023-08-24T14:14:08;22.50;99.90
27384;DHT22;14851;51.166;4.760;2023-08-24T14:16:36;22.60;99.90
27384;DHT22;14851;51.166;4.760;2023-08-24T14:19:02;22.60;99.90
27384;DHT22;14851;51.166;4.760;2023-08-24T14:21:28;22.60;99.90
27384;DHT22;14851;51.166;4.760;2023-08-24T14:23:54;22.70;99.90
27384;DHT22;14851;51.166;4.760;2023-08-24T14:26:20;22.70;99.90
27384;DHT22;14851;51.166;4.760;2023-08-24T14:28:53;22.70;99.90
27384;DHT22;14851;51.166;4.760;2023-08-24T14:31:23;22.70;99.90
27384;DHT22;14851;51.166;4.760;2023-08-24T14:33:51;22.70;99.90
27384;DHT22;14851;51.166;4.760;2023-08-24T14:36:20;22.80;99.90
27384;DHT22;14851;51.166;4.760;2023-08-24T14:38:48;22.80;99.90
27384;DHT22;14851;51.166;4.760;2023-08-24T14:41:16;22.80;99.90
27384;DHT22;14851;51.166;4.760;2023-08-24T14:43:42;22.90;99.90
27384;DHT22;14851;51.166;4.760;2023-08-24T14:46:08;22.90;99.90
27384;DHT22;14851;51.166;4.760;2023-08-24T14:48:34;22.90;99.90
27384;DHT22;14851;51.166;4.760;2023-08-24T14:51:01;22.90;99.90
27384;DHT22;14851;51.166;4.760;2023-08-24T14:53:29;22.90;99.90
27384;DHT22;14851;51.166;4.760;2023-08-24T14:55:56;23.00;99.90
27384;DHT22;14851;51.166;4.760;2023-08-24T14:58:23;23.00;99.90
27384;DHT22;14851;51.166;4.760;2023-08-24T15:00:50;23.00;99.90
27384;DHT22;14851;51.166;4.760;2023-08-24T15:03:17;22.90;99.90
27384;DHT22;14851;51.166;4.760;2023-08-24T15:05:55;23.00;99.90
27384;DHT22;14851;51.166;4.760;2023-08-24T15:08:24;23.00;99.90
27384;DHT22;14851;51.166;4.760;2023-08-24T15:10:54;23.00;99.90
27384;DHT22;14851;51.166;4.760;2023-08-24T15:13:21;23.00;99.90
27384;DHT22;14851;51.166;4.760;2023-08-24T15:15:47;23.00;99.90
27384;DHT22;14851;51.166;4.760;2023-08-24T15:18:13;23.00;99.90
27384;DHT22;14851;51.166;4.760;2023-08-24T15:20:39;23.10;99.90
27384;DHT22;14851;51.166;4.760;2023-08-24T15:23:08;23.10;99.90
27384;DHT22;14851;51.166;4.760;2023-08-24T15:25:38;23.10;99.90
27384;DHT22;14851;51.166;4.760;2023-08-24T15:28:04;23.10;99.90
27384;DHT22;14851;51.166;4.760;2023-08-24T15:30:30;23.10;99.90
27384;DHT22;14851;51.166;4.760;2023-08-24T15:32:56;23.10;99.90
27384;DHT22;14851;51.166;4.760;2023-08-24T15:35:22;23.10;99.90
27384;DHT22;14851;51.166;4.760;2023-08-24T15:37:48;23.20;99.90
27384;DHT22;14851;51.166;4.760;2023-08-24T15:40:13;23.20;99.90
27384;DHT22;14851;51.166;4.760;2023-08-24T15:42:39;23.20;99.90
27384;DHT22;14851;51.166;4.760;2023-08-24T15:45:06;23.20;99.90
27384;DHT22;14851;51.166;4.760;2023-08-24T15:47:32;23.20;99.90
27384;DHT22;14851;51.166;4.760;2023-08-24T15:49:57;23.20;99.90
27384;DHT22;14851;51.166;4.760;2023-08-24T15:52:31;23.20;99.90
27384;DHT22;14851;51.166;4.760;2023-08-24T15:54:57;23.20;99.90
27384;DHT22;14851;51.166;4.760;2023-08-24T15:57:25;23.20;99.90